Time,TemperatureF,DewpointF,PressureIn,WindDirection,WindDirectionDegrees,WindSpeedMPH,WindSpeedGustMPH,Humidity,HourlyPrecipIn,Conditions,Clouds,dailyrainin,SolarRadiationWatts/m^2,SoftwareType,DateUTC
2013-04-08 00:02:00,49.0,29.0,-100.00,North,-999,-999.0,8.0,45,0.00,,,-99.99,0.000000,,2013-04-08 06:02:00,
2013-04-08 00:12:00,51.0,25.0,-100.00,North,-999,-999.0,8.0,37,0.00,,,-99.99,0.000000,,2013-04-08 06:12:00,
2013-04-08 00:21:00,53.0,22.0,-100.00,North,-999,-999.0,6.0,30,0.00,,,-99.99,0.000000,,2013-04-08 06:21:00,
2013-04-08 00:32:00,51.0,27.0,-100.00,North,-999,-999.0,7.0,38,0.00,,,-99.99,0.000000,,2013-04-08 06:32:00,
2013-04-08 00:42:00,55.0,20.0,-100.00,North,-999,-999.0,12.0,25,0.00,,,-99.99,0.000000,,2013-04-08 06:42:00,
2013-04-08 00:50:00,55.0,19.0,-100.00,North,-999,-999.0,14.0,24,0.00,,,-99.99,0.000000,,2013-04-08 06:50:00,
2013-04-08 00:52:00,57.0,19.0,-100.00,North,-999,-999.0,13.0,22,0.00,,,-99.99,0.000000,,2013-04-08 06:52:00,
2013-04-08 01:02:00,56.0,20.0,-100.00,North,-999,-999.0,13.0,25,0.00,,,-99.99,0.000000,,2013-04-08 07:02:00,
2013-04-08 01:12:00,55.0,19.0,-100.00,North,-999,-999.0,14.0,24,0.00,,,-99.99,0.000000,,2013-04-08 07:12:00,
2013-04-08 01:21:00,55.0,19.0,-100.00,North,-999,-999.0,14.0,24,0.00,,,-99.99,0.000000,,2013-04-08 07:21:00,
2013-04-08 01:32:00,55.0,19.0,-100.00,North,-999,-999.0,14.0,24,0.00,,,-99.99,0.000000,,2013-04-08 07:32:00,
2013-04-08 01:42:00,55.0,19.0,-100.00,North,-999,-999.0,14.0,24,0.00,,,-99.99,0.000000,,2013-04-08 07:42:00,
2013-04-08 02:33:00,58.0,18.0,-100.00,North,-999,-999.0,20.0,20,0.00,,,-99.99,0.000000,,2013-04-08 08:33:00,
2013-04-08 02:43:00,57.0,20.0,-100.00,North,-999,-999.0,14.0,24,0.00,,,-99.99,0.000000,,2013-04-08 08:43:00,
2013-04-08 02:52:00,56.0,20.0,-100.00,North,-999,-999.0,10.0,24,0.00,,,-99.99,0.000000,,2013-04-08 08:52:00,
2013-04-08 03:01:00,57.0,20.0,-100.00,North,-999,-999.0,10.0,24,0.00,,,-99.99,0.000000,,2013-04-08 09:01:00,
2013-04-08 03:12:00,56.0,20.0,-100.00,North,-999,-999.0,8.0,25,0.00,,,-99.99,0.000000,,2013-04-08 09:12:00,
2013-04-08 03:22:00,54.0,22.0,-100.00,North,-999,-999.0,12.0,28,0.00,,,-99.99,0.000000,,2013-04-08 09:22:00,
2013-04-08 03:32:00,54.0,24.0,-100.00,North,-999,-999.0,14.0,31,0.00,,,-99.99,0.000000,,2013-04-08 09:32:00,
2013-04-08 03:42:00,54.0,24.0,-100.00,North,-999,-999.0,15.0,31,0.00,,,-99.99,0.000000,,2013-04-08 09:42:00,
2013-04-08 03:52:00,54.0,23.0,-100.00,North,-999,-999.0,12.0,30,0.00,,,-99.99,0.000000,,2013-04-08 09:52:00,
2013-04-08 04:02:00,53.0,23.0,-100.00,North,-999,-999.0,10.0,31,0.00,,,-99.99,0.000000,,2013-04-08 10:02:00,
2013-04-08 04:12:00,52.0,23.0,-100.00,North,-999,-999.0,12.0,31,0.00,,,-99.99,0.000000,,2013-04-08 10:12:00,
2013-04-08 04:22:00,52.0,24.0,-100.00,North,-999,-999.0,12.0,34,0.00,,,-99.99,0.000000,,2013-04-08 10:22:00,
2013-04-08 04:32:00,51.0,26.0,-100.00,North,-999,-999.0,10.0,37,0.00,,,-99.99,0.000000,,2013-04-08 10:32:00,
2013-04-08 04:42:00,51.0,26.0,-100.00,North,-999,-999.0,4.0,37,0.00,,,-99.99,0.000000,,2013-04-08 10:42:00,
2013-04-08 04:52:00,52.0,26.0,-100.00,North,-999,-999.0,14.0,37,0.00,,,-99.99,0.000000,,2013-04-08 10:52:00,
2013-04-08 05:02:00,52.0,27.0,-100.00,North,-999,-999.0,16.0,38,0.00,,,-99.99,0.000000,,2013-04-08 11:02:00,
2013-04-08 05:12:00,50.0,31.0,-100.00,North,-999,-999.0,20.0,47,0.00,,,-99.99,0.000000,,2013-04-08 11:12:00,
2013-04-08 05:22:00,48.0,35.0,-100.00,North,-999,-999.0,20.0,61,0.00,,,-99.99,0.000000,,2013-04-08 11:22:00,
2013-04-08 05:32:00,46.0,35.0,-100.00,North,-999,-999.0,19.0,64,0.00,,,-99.99,0.000000,,2013-04-08 11:32:00,
2013-04-08 05:42:00,47.0,34.0,-100.00,North,-999,-999.0,14.0,62,0.00,,,-99.99,0.000000,,2013-04-08 11:42:00,
2013-04-08 05:50:00,45.0,35.0,-100.00,North,-999,-999.0,5.0,68,0.00,,,-99.99,0.000000,,2013-04-08 11:50:00,
2013-04-08 05:52:00,46.0,35.0,-100.00,North,-999,-999.0,9.0,66,0.00,,,-99.99,0.000000,,2013-04-08 11:52:00,
2013-04-08 06:01:00,45.0,35.0,-100.00,North,-999,-999.0,8.0,68,0.00,,,-99.99,0.000000,,2013-04-08 12:01:00,
2013-04-08 06:12:00,45.0,35.0,-100.00,North,-999,-999.0,5.0,68,0.00,,,-99.99,0.000000,,2013-04-08 12:12:00,
2013-04-08 06:21:00,45.0,35.0,-100.00,North,-999,-999.0,5.0,68,0.00,,,-99.99,0.000000,,2013-04-08 12:21:00,
2013-04-08 06:32:00,45.0,35.0,-100.00,North,-999,-999.0,5.0,68,0.00,,,-99.99,0.000000,,2013-04-08 12:32:00,
2013-04-08 06:42:00,45.0,35.0,-100.00,North,-999,-999.0,5.0,68,0.00,,,-99.99,0.000000,,2013-04-08 12:42:00,
2013-04-08 07:22:00,43.0,38.0,-100.00,North,-999,-999.0,4.0,81,0.00,,,-99.99,1.000000,,2013-04-08 13:22:00,
2013-04-08 07:32:00,44.0,38.0,-100.00,North,-999,-999.0,6.0,81,0.00,,,-99.99,1.000000,,2013-04-08 13:32:00,
2013-04-08 07:43:00,44.0,38.0,-100.00,North,-999,-999.0,5.0,80,0.00,,,-99.99,1.000000,,2013-04-08 13:43:00,
2013-04-08 07:52:00,44.0,38.0,-100.00,North,-999,-999.0,4.0,78,0.00,,,-99.99,6.000000,,2013-04-08 13:52:00,
2013-04-08 08:02:00,44.0,38.0,-100.00,North,-999,-999.0,5.0,81,0.00,,,-99.99,14.000000,,2013-04-08 14:02:00,
2013-04-08 08:12:00,44.0,38.0,-100.00,North,-999,-999.0,7.0,81,0.00,,,-99.99,18.000000,,2013-04-08 14:12:00,
2013-04-08 08:21:00,43.0,38.0,-100.00,North,-999,-999.0,13.0,81,0.00,,,-99.99,32.000000,,2013-04-08 14:21:00,
2013-04-08 08:32:00,43.0,38.0,-100.00,North,-999,-999.0,11.0,83,0.00,,,-99.99,18.000000,,2013-04-08 14:32:00,
2013-04-08 08:42:00,42.0,38.0,-100.00,North,-999,-999.0,12.0,85,0.00,,,-99.99,27.000000,,2013-04-08 14:42:00,
2013-04-08 08:52:00,42.0,37.0,-100.00,North,-999,-999.0,13.0,84,0.00,,,-99.99,22.000000,,2013-04-08 14:52:00,
2013-04-08 09:01:00,42.0,38.0,-100.00,North,-999,-999.0,9.0,86,0.00,,,-99.99,40.000000,,2013-04-08 15:01:00,
2013-04-08 09:12:00,42.0,38.0,-100.00,North,-999,-999.0,9.0,87,0.00,,,-99.99,32.000000,,2013-04-08 15:12:00,
2013-04-08 09:21:00,41.0,38.0,-100.00,North,-999,-999.0,11.0,89,0.00,,,-99.99,42.000000,,2013-04-08 15:21:00,
2013-04-08 09:33:00,40.0,37.0,-100.00,North,-999,-999.0,14.0,90,0.00,,,-99.99,65.000000,,2013-04-08 15:33:00,
2013-04-08 09:42:00,40.0,37.0,-100.00,North,-999,-999.0,13.0,91,0.00,,,-99.99,53.000000,,2013-04-08 15:42:00,
2013-04-08 09:52:00,39.0,37.0,-100.00,North,-999,-999.0,18.0,90,0.00,,,-99.99,118.000000,,2013-04-08 15:52:00,
2013-04-08 10:02:00,39.0,37.0,-100.00,North,-999,-999.0,18.0,91,0.00,,,-99.99,81.000000,,2013-04-08 16:02:00,
2013-04-08 10:12:00,39.0,36.0,-100.00,North,-999,-999.0,16.0,91,0.00,,,-99.99,84.000000,,2013-04-08 16:12:00,
2013-04-08 10:22:00,38.0,36.0,-100.00,North,-999,-999.0,19.0,92,0.00,,,-99.99,82.000000,,2013-04-08 16:22:00,
2013-04-08 10:32:00,38.0,36.0,-100.00,North,-999,-999.0,19.0,92,0.00,,,-99.99,82.000000,,2013-04-08 16:32:00,
2013-04-08 10:42:00,38.0,36.0,-100.00,North,-999,-999.0,15.0,92,0.00,,,-99.99,79.000000,,2013-04-08 16:42:00,
2013-04-08 10:50:00,39.0,36.0,-100.00,North,-999,-999.0,15.0,90,0.00,,,-99.99,110.000000,,2013-04-08 16:50:00,
2013-04-08 10:52:00,39.0,36.0,-100.00,North,-999,-999.0,15.0,90,0.00,,,-99.99,154.000000,,2013-04-08 16:52:00,
2013-04-08 11:02:00,39.0,36.0,-100.00,North,-999,-999.0,14.0,91,0.00,,,-99.99,81.000000,,2013-04-08 17:02:00,
2013-04-08 11:11:00,39.0,36.0,-100.00,North,-999,-999.0,15.0,90,0.00,,,-99.99,110.000000,,2013-04-08 17:11:00,
2013-04-08 11:22:00,39.0,36.0,-100.00,North,-999,-999.0,15.0,90,0.00,,,-99.99,110.000000,,2013-04-08 17:22:00,
2013-04-08 11:32:00,39.0,36.0,-100.00,North,-999,-999.0,15.0,90,0.00,,,-99.99,110.000000,,2013-04-08 17:32:00,
2013-04-08 11:42:00,39.0,36.0,-100.00,North,-999,-999.0,15.0,90,0.00,,,-99.99,110.000000,,2013-04-08 17:42:00,
2013-04-08 12:23:00,39.0,36.0,-100.00,North,-999,-999.0,9.0,92,0.00,,,-99.99,123.000000,,2013-04-08 18:23:00,
2013-04-08 12:32:00,39.0,36.0,-100.00,North,-999,-999.0,8.0,92,0.00,,,-99.99,85.000000,,2013-04-08 18:32:00,
2013-04-08 12:42:00,39.0,37.0,-100.00,North,-999,-999.0,10.0,93,0.00,,,-99.99,64.000000,,2013-04-08 18:42:00,
2013-04-08 12:52:00,39.0,37.0,-100.00,North,-999,-999.0,11.0,92,0.00,,,-99.99,40.000000,,2013-04-08 18:52:00,
2013-04-08 13:02:00,39.0,37.0,-100.00,North,-999,-999.0,11.0,92,0.00,,,-99.99,108.000000,,2013-04-08 19:02:00,
2013-04-08 13:12:00,40.0,37.0,-100.00,North,-999,-999.0,13.0,89,0.00,,,-99.99,96.000000,,2013-04-08 19:12:00,
2013-04-08 13:22:00,39.0,37.0,-100.00,North,-999,-999.0,14.0,90,0.00,,,-99.99,246.000000,,2013-04-08 19:22:00,
2013-04-08 13:33:00,39.0,36.0,-100.00,North,-999,-999.0,19.0,89,0.00,,,-99.99,110.000000,,2013-04-08 19:33:00,
2013-04-08 13:42:00,39.0,37.0,-100.00,North,-999,-999.0,15.0,90,0.00,,,-99.99,190.000000,,2013-04-08 19:42:00,
2013-04-08 13:52:00,40.0,38.0,-100.00,North,-999,-999.0,15.0,90,0.00,,,-99.99,215.000000,,2013-04-08 19:52:00,
2013-04-08 14:02:00,40.0,37.0,-100.00,North,-999,-999.0,15.0,88,0.00,,,-99.99,274.000000,,2013-04-08 20:02:00,
2013-04-08 14:12:00,40.0,37.0,-100.00,North,-999,-999.0,16.0,89,0.00,,,-99.99,258.000000,,2013-04-08 20:12:00,
2013-04-08 14:22:00,41.0,38.0,-100.00,North,-999,-999.0,16.0,88,0.01,,,-99.99,222.000000,,2013-04-08 20:22:00,
2013-04-08 14:32:00,41.0,37.0,-100.00,North,-999,-999.0,16.0,86,0.01,,,-99.99,256.000000,,2013-04-08 20:32:00,
2013-04-08 14:42:00,41.0,37.0,-100.00,North,-999,-999.0,17.0,85,0.01,,,-99.99,258.000000,,2013-04-08 20:42:00,
2013-04-08 14:52:00,41.0,37.0,-100.00,North,-999,-999.0,15.0,85,0.01,,,-99.99,201.000000,,2013-04-08 20:52:00,
2013-04-08 15:01:00,41.0,37.0,-100.00,North,-999,-999.0,17.0,84,0.01,,,-99.99,152.000000,,2013-04-08 21:01:00,
2013-04-08 15:12:00,41.0,37.0,-100.00,North,-999,-999.0,13.0,86,0.01,,,-99.99,90.000000,,2013-04-08 21:12:00,
2013-04-08 15:21:00,40.0,37.0,-100.00,North,-999,-999.0,9.0,89,0.00,,,-99.99,63.000000,,2013-04-08 21:21:00,
2013-04-08 15:32:00,40.0,37.0,-100.00,North,-999,-999.0,10.0,89,0.00,,,-99.99,85.000000,,2013-04-08 21:32:00,
2013-04-08 15:42:00,40.0,37.0,-100.00,North,-999,-999.0,10.0,90,0.00,,,-99.99,87.000000,,2013-04-08 21:42:00,
2013-04-08 15:50:00,41.0,37.0,-100.00,North,-999,-999.0,7.0,88,0.00,,,-99.99,78.000000,,2013-04-08 21:50:00,
2013-04-08 15:52:00,40.0,37.0,-100.00,North,-999,-999.0,8.0,89,0.00,,,-99.99,96.000000,,2013-04-08 21:52:00,
2013-04-08 16:02:00,40.0,37.0,-100.00,North,-999,-999.0,8.0,88,0.00,,,-99.99,87.000000,,2013-04-08 22:02:00,
2013-04-08 16:12:00,41.0,37.0,-100.00,North,-999,-999.0,7.0,88,0.00,,,-99.99,78.000000,,2013-04-08 22:12:00,
2013-04-08 16:22:00,41.0,37.0,-100.00,North,-999,-999.0,7.0,88,0.00,,,-99.99,78.000000,,2013-04-08 22:22:00,
2013-04-08 16:32:00,41.0,37.0,-100.00,North,-999,-999.0,7.0,88,0.00,,,-99.99,78.000000,,2013-04-08 22:32:00,
2013-04-08 16:42:00,41.0,37.0,-100.00,North,-999,-999.0,7.0,88,0.00,,,-99.99,78.000000,,2013-04-08 22:42:00,
2013-04-08 17:32:00,41.0,37.0,-100.00,North,-999,-999.0,13.0,85,0.00,,,-99.99,21.000000,,2013-04-08 23:32:00,
2013-04-08 17:43:00,41.0,37.0,-100.00,North,-999,-999.0,19.0,86,0.00,,,-99.99,23.000000,,2013-04-08 23:43:00,
2013-04-08 17:52:00,41.0,37.0,-100.00,North,-999,-999.0,15.0,86,0.00,,,-99.99,38.000000,,2013-04-08 23:52:00,
2013-04-08 18:02:00,41.0,37.0,-100.00,North,-999,-999.0,15.0,86,0.00,,,-99.99,38.000000,,2013-04-09 00:02:00,
2013-04-08 18:12:00,41.0,38.0,-100.00,North,-999,-999.0,13.0,89,0.00,,,-99.99,33.000000,,2013-04-09 00:12:00,
2013-04-08 18:21:00,41.0,38.0,-100.00,North,-999,-999.0,13.0,90,0.02,,,-99.99,49.000000,,2013-04-09 00:21:00,
2013-04-08 18:31:00,41.0,38.0,-100.00,North,-999,-999.0,13.0,90,0.02,,,-99.99,49.000000,,2013-04-09 00:31:00,
2013-04-08 18:42:00,41.0,39.0,-100.00,North,-999,-999.0,13.0,92,0.02,,,-99.99,18.000000,,2013-04-09 00:42:00,
2013-04-08 18:52:00,40.0,37.0,-100.00,North,-999,-999.0,10.0,91,0.02,,,-99.99,16.000000,,2013-04-09 00:52:00,
2013-04-08 19:02:00,40.0,38.0,-100.00,North,-999,-999.0,10.0,93,0.02,,,-99.99,31.000000,,2013-04-09 01:02:00,
2013-04-08 19:12:00,40.0,37.0,-100.00,North,-999,-999.0,16.0,92,0.02,,,-99.99,26.000000,,2013-04-09 01:12:00,
2013-04-08 19:21:00,39.0,37.0,-100.00,North,-999,-999.0,15.0,92,0.06,,,-99.99,21.000000,,2013-04-09 01:21:00,
2013-04-08 19:32:00,39.0,37.0,-100.00,North,-999,-999.0,15.0,92,0.06,,,-99.99,15.000000,,2013-04-09 01:32:00,
2013-04-08 19:42:00,39.0,37.0,-100.00,North,-999,-999.0,13.0,93,0.06,,,-99.99,8.000000,,2013-04-09 01:42:00,
2013-04-08 19:52:00,38.0,36.0,-100.00,North,-999,-999.0,12.0,93,0.06,,,-99.99,6.000000,,2013-04-09 01:52:00,
2013-04-08 20:02:00,38.0,36.0,-100.00,North,-999,-999.0,15.0,92,0.06,,,-99.99,3.000000,,2013-04-09 02:02:00,
2013-04-08 20:21:00,37.0,35.0,-100.00,North,-999,-999.0,18.0,91,0.12,,,-99.99,0.000000,,2013-04-09 02:21:00,
2013-04-08 20:32:00,37.0,34.0,-100.00,North,-999,-999.0,18.0,92,0.12,,,-99.99,0.000000,,2013-04-09 02:32:00,
2013-04-08 20:42:00,36.0,34.0,-100.00,North,-999,-999.0,18.0,92,0.12,,,-99.99,0.000000,,2013-04-09 02:42:00,
2013-04-08 20:50:00,35.0,33.0,-100.00,North,-999,-999.0,19.0,92,0.12,,,-99.99,0.000000,,2013-04-09 02:50:00,
2013-04-08 20:52:00,36.0,34.0,-100.00,North,-999,-999.0,20.0,92,0.12,,,-99.99,0.000000,,2013-04-09 02:52:00,
2013-04-08 21:02:00,36.0,34.0,-100.00,North,-999,-999.0,18.0,93,0.12,,,-99.99,0.000000,,2013-04-09 03:02:00,
2013-04-08 21:12:00,35.0,33.0,-100.00,North,-999,-999.0,19.0,92,0.12,,,-99.99,0.000000,,2013-04-09 03:12:00,
2013-04-08 21:21:00,35.0,33.0,-100.00,North,-999,-999.0,19.0,92,0.12,,,-99.99,0.000000,,2013-04-09 03:21:00,
2013-04-08 21:32:00,35.0,33.0,-100.00,North,-999,-999.0,19.0,92,0.12,,,-99.99,0.000000,,2013-04-09 03:32:00,
2013-04-08 21:42:00,35.0,33.0,-100.00,North,-999,-999.0,19.0,92,0.12,,,-99.99,0.000000,,2013-04-09 03:42:00,
2013-04-08 22:23:00,36.0,33.0,-100.00,North,-999,-999.0,27.0,87,0.08,,,-99.99,0.000000,,2013-04-09 04:23:00,
2013-04-08 22:33:00,36.0,33.0,-100.00,North,-999,-999.0,23.0,89,0.08,,,-99.99,0.000000,,2013-04-09 04:33:00,
2013-04-08 22:43:00,36.0,33.0,-100.00,North,-999,-999.0,23.0,89,0.08,,,-99.99,0.000000,,2013-04-09 04:43:00,
2013-04-08 22:53:00,36.0,33.0,-100.00,North,-999,-999.0,23.0,89,0.08,,,-99.99,0.000000,,2013-04-09 04:53:00,
2013-04-08 23:02:00,36.0,33.0,-100.00,North,-999,-999.0,23.0,89,0.08,,,-99.99,0.000000,,2013-04-09 05:02:00,
2013-04-08 23:12:00,35.0,33.0,-100.00,North,-999,-999.0,23.0,90,0.08,,,-99.99,0.000000,,2013-04-09 05:12:00,
2013-04-08 23:22:00,35.0,33.0,-100.00,North,-999,-999.0,17.0,91,0.03,,,-99.99,0.000000,,2013-04-09 05:22:00,
2013-04-08 23:32:00,35.0,32.0,-100.00,North,-999,-999.0,17.0,90,0.03,,,-99.99,0.000000,,2013-04-09 05:32:00,
2013-04-08 23:42:00,35.0,33.0,-100.00,North,-999,-999.0,17.0,92,0.03,,,-99.99,0.000000,,2013-04-09 05:42:00,
2013-04-08 23:52:00,35.0,33.0,-100.00,North,-999,-999.0,16.0,92,0.03,,,-99.99,0.000000,,2013-04-09 05:52:00,